Casper, WY

1:16 PM MDT on September 19, 2014 (GMT -0600)
North of Casper, WY | Change Station
CLOSE
Current Station
Personal Weather Station
Location: Bar Nunn, WY
Elevation: 5276 ft
Nearby Weather Stations

Elev 5276 ft 42.91 °N, 106.35 °W | Updated 2 minutes ago

Clear
Clear
81.5 °F
Feels Like 80 °F
N
9.6
Wind Variable Wind from North
Gusts 17.0 mph

Today
High -- | Low -- °F
--% Chance of Precip.
Yesterday
High -- | Low -- °F
Precip. -- in
6:49 AM 7:07 PM
Waning Crescent, 17% visible
Pressure 29.79 in
Visibility 10.0 miles
Clouds Clear
Heat Index 80 °F
Dew Point 43 °F
Humidity 26%
Rainfall 0.00 in
Snow Depth 0 in , 0 in , 0 in
UV 8 out of 12
Pollen 5.80 out of 12
Air Quality Not available.
Flu Activity Not available.
METAR KCPR 191853Z 27015G20KT 10SM CLR 27/03 A3000 RMK AO2 SLP088 T02720033 $

More Conditions Fewer Conditions

Pressure 29.79 in
Visibility 10.0 miles
Clouds Clear
Heat Index 80 °F
Dew Point 43 °F
Humidity 26%
Rainfall 0.00 in
Snow Depth 0 in , 0 in , 0 in
UV 8 out of 12
Pollen 5.80 out of 12
Air Quality Not available.
Flu Activity Not available.
METAR KCPR 191853Z 27015G20KT 10SM CLR 27/03 A3000 RMK AO2 SLP088 T02720033 $

More Conditions Fewer Conditions

10-Day Weather Forecast

Almanac

Astronomy

Sep. 19, 2014 Rise Set
Actual Time 6:49 AM MDT 7:07 PM MDT
Civil Twilight 6:21 AM MDT 7:36 PM MDT
Nautical Twilight 5:47 AM MDT 8:09 PM MDT
Astronomical Twilight 5:13 AM MDT 8:43 PM MDT
Moon 2:32 AM MDT 4:42 PM MDT
Length of Visible Light 13h 15m
Length of Day
12h 18m
Tomorrow will be 2m 53s shorter.
Waning Crescent, 17% of the Moon is Illuminated
Today
Waning Crescent
Sep 24
New
Oct 1
First Quarter
Oct 8
Full
Oct 15
Last Quarter

Today's Extremes

State Highs State Lows

Community

WunderPhotos

Upload Photos

1,754,685 photos uploaded!

WunderBlogs® & News

Nearby

Snow Depth

Station Depth Elevation
Casper Mountain 0 in 7850 ft
Two Ocean Plateau 0 in 9240 ft
Wolverine 0 in 7650 ft
Granite Creek 0 in 6770 ft
Thumb Divide 0 in 7980 ft

Earthquake Activity

City Distance Mag. Time & Date
No recent earthquake activity has been reported nearby.
Minimum magnitude displayed is 2.5.

Coastal Water Temperatures

Place Temperature
No Stations Reporting

Nearby Weather Stations